Time;durP1;ratioP1;P1;durP2;ratioP2;P2;SDS_P1;SDS_P2;PMS_P1;PMS_P2;Temp;Humidity;BMP_temperature;BMP_pressure;BME280_temperature;BME280_humidity;BME280_pressure;Samples;Min_cycle;Max_cycle;Signal;HPM_P1;HPM_P2
2021/05/08 00:02:25;;;;;;;18.17;16.03;;;;;;;;;;4972324;28;20178;-88
2021/05/08 00:04:51;;;;;;;18.42;15.00;;;4.60;72.00;;;;;;4974443;28;20181;-88
2021/05/08 00:07:17;;;;;;;20.50;15.60;;;;;;;;;;4977256;28;20194;-88
2021/05/08 00:09:43;;;;;;;16.00;14.40;;;4.40;72.40;;;;;;4976669;28;20225;-88
2021/05/08 00:12:09;;;;;;;18.27;15.20;;;4.40;73.70;;;;;;4976159;28;20174;-87
2021/05/08 00:14:35;;;;;;;16.80;14.15;;;5.80;82.50;;;;;;4976764;28;20479;-87
2021/05/08 00:17:01;;;;;;;17.48;15.25;;;4.40;72.90;;;;;;4982098;28;20160;-88
2021/05/08 00:19:28;;;;;;;18.70;15.80;;;4.50;77.60;;;;;;4979356;28;20194;-87
2021/05/08 00:21:54;;;;;;;20.00;15.20;;;4.80;72.50;;;;;;4974984;28;20877;-88
2021/05/08 00:24:20;;;;;;;18.60;16.20;;;;;;;;;;4974836;28;20193;-88
2021/05/08 00:26:46;;;;;;;20.75;15.27;;;4.40;71.90;;;;;;4973927;28;20527;-88
2021/05/08 00:29:12;;;;;;;22.43;17.80;;;7.30;86.80;;;;;;4990924;28;20225;-88
2021/05/08 00:31:38;;;;;;;21.90;17.73;;;;;;;;;;4972753;28;20421;-88
2021/05/08 00:34:06;;;;;;;22.83;19.25;;;4.30;72.20;;;;;;4974580;28;20185;-88
2021/05/08 00:36:33;;;;;;;21.10;17.90;;;5.00;73.70;;;;;;4974656;28;20176;-88
2021/05/08 00:38:59;;;;;;;25.67;18.15;;;7.60;78.90;;;;;;4991940;28;20170;-88
2021/05/08 00:41:26;;;;;;;17.37;15.40;;;8.60;90.10;;;;;;4974799;28;20249;-88
2021/05/08 00:43:59;;;;;;;18.33;15.55;;;7.60;80.60;;;;;;4973991;28;20192;-88
2021/05/08 00:46:26;;;;;;;20.48;16.55;;;4.20;73.00;;;;;;4972944;28;20186;-88
2021/05/08 00:48:55;;;;;;;22.98;16.20;;;4.10;75.60;;;;;;4971782;28;20225;-89
2021/05/08 00:51:21;;;;;;;23.42;18.73;;;4.60;75.00;;;;;;4972212;28;20616;-89
2021/05/08 00:53:46;;;;;;;22.33;18.20;;;7.50;83.30;;;;;;4971721;28;20174;-88
2021/05/08 00:56:13;;;;;;;29.50;19.10;;;5.60;85.10;;;;;;4987642;28;20228;-88
2021/05/08 00:58:39;;;;;;;28.38;20.83;;;8.60;81.10;;;;;;4970842;28;20280;-88
2021/05/08 01:01:05;;;;;;;26.57;21.03;;;;;;;;;;4970533;28;20177;-88
2021/05/08 01:03:31;;;;;;;24.27;18.92;;;4.20;74.50;;;;;;4969671;28;20396;-88
2021/05/08 01:05:57;;;;;;;24.80;20.23;;;5.40;86.00;;;;;;4969613;28;20176;-87
2021/05/08 01:08:23;;;;;;;24.80;17.40;;;3.50;80.70;;;;;;4969932;28;20237;-88
2021/05/08 01:10:51;;;;;;;22.40;18.27;;;3.40;77.50;;;;;;4970418;28;20407;-88
2021/05/08 01:13:18;;;;;;;17.20;15.40;;;6.30;79.80;;;;;;4972047;28;20193;-89
2021/05/08 01:15:44;;;;;;;16.20;14.57;;;3.80;77.50;;;;;;4970844;28;20178;-88
2021/05/08 01:18:10;;;;;;;16.30;14.27;;;8.20;81.90;;;;;;4971964;28;20170;-88
2021/05/08 01:20:36;;;;;;;16.57;14.87;;;6.40;84.20;;;;;;4973863;28;20184;-89
2021/05/08 01:23:02;;;;;;;17.50;15.67;;;3.20;76.90;;;;;;4974467;28;20400;-88
2021/05/08 01:25:29;;;;;;;19.50;15.43;;;7.70;83.30;;;;;;4975170;28;20388;-88
2021/05/08 01:27:59;;;;;;;15.77;14.18;;;6.20;84.40;;;;;;4957417;28;20181;-88
2021/05/08 01:30:29;;;;;;;19.05;16.58;;;5.40;75.40;;;;;;4974647;28;20212;-88
2021/05/08 01:32:55;;;;;;;24.60;19.38;;;6.70;78.00;;;;;;4974883;28;20174;-88
2021/05/08 01:35:21;;;;;;;20.45;18.25;;;7.90;85.20;;;;;;4974395;28;20178;-89
2021/05/08 01:37:48;;;;;;;17.30;15.50;;;5.50;81.40;;;;;;4975178;28;20181;-88
2021/05/08 01:40:15;;;;;;;16.50;14.65;;;7.20;83.60;;;;;;4973571;28;20229;-88
2021/05/08 01:42:43;;;;;;;20.30;16.10;;;5.30;76.70;;;;;;4974708;28;20185;-87
2021/05/08 01:45:17;;;;;;;19.02;17.05;;;6.40;77.70;;;;;;4973173;28;20197;-87
2021/05/08 01:47:44;;;;;;;23.10;16.92;;;5.00;71.50;;;;;;4974779;28;20221;-87
2021/05/08 01:50:16;;;;;;;21.70;15.68;;;8.10;79.80;;;;;;4977282;28;20189;-90
2021/05/08 01:52:42;;;;;;;21.70;15.25;;;8.00;78.10;;;;;;4993567;28;20214;-88
2021/05/08 01:55:17;;;;;;;24.13;17.63;;;8.00;83.90;;;;;;4975397;28;20178;-88
2021/05/08 01:57:48;;;;;;;20.00;17.73;;;4.90;72.00;;;;;;4993072;28;20165;-88
2021/05/08 02:00:35;;;;;;;22.10;17.60;;;4.30;73.60;;;;;;4974373;28;20213;-88
2021/05/08 02:03:01;;;;;;;21.73;19.05;;;6.70;77.30;;;;;;4973532;28;20324;-87
2021/05/08 02:05:30;;;;;;;44.10;18.80;;;6.10;75.60;;;;;;4973722;28;20599;-87
2021/05/08 02:07:56;;;;;;;22.35;18.83;;;3.20;71.00;;;;;;4974625;28;20169;-88
2021/05/08 02:10:22;;;;;;;23.95;19.27;;;8.00;78.70;;;;;;4971973;28;20184;-89
2021/05/08 02:12:51;;;;;;;22.15;17.88;;;7.00;85.30;;;;;;4972488;28;20182;-88
2021/05/08 02:15:18;;;;;;;26.80;19.60;;;5.20;84.10;;;;;;4968492;28;20193;-89
2021/05/08 02:17:44;;;;;;;21.80;19.48;;;7.50;79.70;;;;;;4970740;28;20174;-88
2021/05/08 02:20:16;;;;;;;29.08;22.23;;;8.10;79.30;;;;;;4970279;28;20178;-87
2021/05/08 02:22:43;;;;;;;22.88;19.40;;;4.80;77.60;;;;;;4969797;28;20177;-88
2021/05/08 02:25:11;;;;;;;28.20;21.40;;;4.30;79.00;;;;;;4970476;28;20205;-88
2021/05/08 02:27:38;;;;;;;26.75;21.00;;;4.70;77.80;;;;;;4970776;28;20177;-88
2021/05/08 02:30:08;;;;;;;26.08;19.15;;;7.20;78.90;;;;;;4987131;28;20236;-88
2021/05/08 02:32:34;;;;;;;23.25;19.92;;;4.30;74.40;;;;;;4973023;28;20177;-88
2021/05/08 02:35:00;;;;;;;28.92;21.05;;;5.00;76.00;;;;;;4973316;28;20170;-88
2021/05/08 02:37:26;;;;;;;25.37;21.10;;;;;;;;;;4974413;28;20192;-87
2021/05/08 02:39:52;;;;;;;26.50;19.98;;;4.20;74.40;;;;;;4971473;28;20269;-88
2021/05/08 02:42:18;;;;;;;27.70;21.57;;;4.00;78.60;;;;;;4971883;28;20170;-88
2021/05/08 02:44:44;;;;;;;30.70;22.43;;;;;;;;;;4989333;28;20480;-88
2021/05/08 02:47:19;;;;;;;25.55;20.25;;;4.20;74.30;;;;;;4989018;28;20264;-87
2021/05/08 02:49:50;;;;;;;29.58;20.83;;;4.70;77.30;;;;;;4970628;28;20213;-88
2021/05/08 02:52:17;;;;;;;26.05;20.35;;;2.60;76.00;;;;;;4974437;28;20178;-89
2021/05/08 02:54:46;;;;;;;26.30;18.15;;;7.20;80.40;;;;;;4956332;28;20178;-88
2021/05/08 02:57:12;;;;;;;19.02;17.00;;;6.70;83.90;;;;;;4974940;28;20258;-88
2021/05/08 02:59:38;;;;;;;19.57;17.47;;;;;;;;;;4989716;28;20182;-88
2021/05/08 03:02:05;;;;;;;20.95;17.35;;;4.40;72.30;;;;;;4972894;28;20210;-88
2021/05/08 03:04:31;;;;;;;23.30;18.48;;;2.90;77.70;;;;;;4977493;28;20170;-87
2021/05/08 03:06:56;;;;;;;24.27;18.80;;;6.10;82.20;;;;;;4994843;28;20170;-86
2021/05/08 03:09:23;;;;;;;20.67;17.60;;;5.80;79.30;;;;;;4995779;28;20213;-87
2021/05/08 03:11:49;;;;;;;20.30;17.63;;;5.70;83.00;;;;;;4981067;28;20177;-89
2021/05/08 03:14:15;;;;;;;22.27;19.23;;;6.50;79.40;;;;;;4984197;28;20185;-89
2021/05/08 03:16:43;;;;;;;22.47;18.50;;;6.40;82.80;;;;;;4983844;28;20181;-89
2021/05/08 03:19:09;;;;;;;17.35;14.75;;;5.20;76.40;;;;;;4983771;28;20517;-88
2021/05/08 03:21:35;;;;;;;14.83;13.40;;;4.70;81.40;;;;;;4982262;28;20170;-86
2021/05/08 03:24:03;;;;;;;14.70;12.68;;;6.30;74.30;;;;;;4976510;28;20493;-88
2021/05/08 03:26:28;;;;;;;13.50;12.20;;;4.20;74.50;;;;;;4976315;28;20177;-88
2021/05/08 03:28:55;;;;;;;12.97;11.70;;;;;;;;;;4977522;28;20218;-85
2021/05/08 03:31:20;;;;;;;15.45;12.30;;;4.40;70.10;;;;;;4976528;28;20164;-88
2021/05/08 03:33:46;;;;;;;17.90;15.10;;;;;;;;;;4972679;28;20193;-88
2021/05/08 03:36:12;;;;;;;18.23;15.30;;;4.40;70.70;;;;;;4971742;28;20568;-88
2021/05/08 03:38:38;;;;;;;16.73;15.03;;;;;;;;;;4973701;28;20411;-88
2021/05/08 03:41:04;;;;;;;20.10;16.38;;;4.40;71.70;;;;;;4973589;28;20407;-88
2021/05/08 03:43:30;;;;;;;19.63;17.20;;;2.60;72.70;;;;;;4973098;28;20433;-88
2021/05/08 03:45:57;;;;;;;20.13;17.98;;;5.90;81.60;;;;;;4973575;28;20403;-87
2021/05/08 03:48:23;;;;;;;23.88;17.90;;;5.70;75.80;;;;;;4977557;28;20317;-87
2021/05/08 03:50:49;;;;;;;22.38;19.10;;;7.60;80.10;;;;;;4998654;28;20181;-88
2021/05/08 03:53:16;;;;;;;22.10;18.43;;;7.70;80.30;;;;;;4976445;28;20234;-88
2021/05/08 03:55:41;;;;;;;21.00;18.02;;;6.60;80.30;;;;;;4970494;28;20401;-89
2021/05/08 03:58:07;;;;;;;19.83;16.87;;;;;;;;;;4973214;28;20242;-88
2021/05/08 04:00:34;;;;;;;22.60;17.33;;;4.40;72.60;;;;;;4976691;28;20178;-87
2021/05/08 04:02:59;;;;;;;20.53;18.33;;;3.90;77.30;;;;;;4975920;28;20173;-87
2021/05/08 04:05:25;;;;;;;25.50;19.53;;;5.50;79.30;;;;;;4976670;28;20408;-87
2021/05/08 04:07:51;;;;;;;20.07;17.93;;;5.90;82.50;;;;;;4973821;28;20805;-86
2021/05/08 04:10:19;;;;;;;20.75;16.50;;;7.00;84.20;;;;;;4991301;28;20407;-88
2021/05/08 04:12:45;;;;;;;22.80;17.42;;;4.00;73.70;;;;;;4972335;28;20181;-88
2021/05/08 04:15:11;;;;;;;21.00;17.80;;;3.40;78.00;;;;;;4971333;28;20170;-87
2021/05/08 04:17:37;;;;;;;23.00;17.83;;;4.60;79.30;;;;;;4970647;28;20477;-87
2021/05/08 04:20:03;;;;;;;22.98;19.80;;;3.90;77.90;;;;;;4969949;28;20170;-87
2021/05/08 04:22:29;;;;;;;22.77;18.60;;;4.80;75.50;;;;;;4987922;28;20173;-88
2021/05/08 04:24:55;;;;;;;20.60;17.83;;;4.20;79.30;;;;;;4956502;28;20550;-87
2021/05/08 04:27:20;;;;;;;21.77;17.97;;;4.80;78.80;;;;;;4973872;28;20182;-88
2021/05/08 04:29:46;;;;;;;25.37;16.87;;;6.30;81.80;;;;;;4992693;28;20265;-88
2021/05/08 04:32:12;;;;;;;20.80;18.60;;;6.50;84.60;;;;;;4976741;28;20166;-88
2021/05/08 04:34:38;;;;;;;21.33;19.13;;;5.70;85.40;;;;;;4976386;28;20410;-87
2021/05/08 04:37:03;;;;;;;23.80;19.50;;;6.60;86.60;;;;;;4973818;28;20176;-88
2021/05/08 04:39:29;;;;;;;25.90;19.30;;;6.00;83.50;;;;;;4974906;28;20182;-88
2021/05/08 04:41:55;;;;;;;23.07;18.50;;;7.30;85.50;;;;;;4975166;28;20225;-88
2021/05/08 04:44:21;;;;;;;21.47;19.03;;;;;;;;;;4973256;28;20178;-87
2021/05/08 04:46:49;;;;;;;22.77;19.70;;;4.50;74.90;;;;;;4990944;28;20221;-88
2021/05/08 04:49:15;;;;;;;24.15;18.42;;;6.70;82.40;;;;;;4971739;28;20520;-88
2021/05/08 04:51:41;;;;;;;28.30;19.65;;;6.20;83.00;;;;;;4953972;28;20181;-86
2021/05/08 04:54:07;;;;;;;28.07;18.37;;;;;;;;;;4969700;28;20185;-87
2021/05/08 04:56:34;;;;;;;19.38;16.98;;;4.50;74.80;;;;;;4990883;28;20170;-86
2021/05/08 04:59:01;;;;;;;20.58;17.98;;;7.80;87.40;;;;;;4995735;28;20246;-88
2021/05/08 05:01:38;;;;;;;19.15;16.60;;;5.30;83.80;;;;;;4978876;28;20181;-89
2021/05/08 05:04:05;;;;;;;17.63;15.90;;;7.60;78.90;;;;;;4982986;28;20170;-86
2021/05/08 05:06:36;;;;;;;17.42;15.15;;;5.50;82.80;;;;;;4966601;28;20581;-87
2021/05/08 05:09:03;;;;;;;15.00;13.48;;;7.60;83.20;;;;;;4981409;28;20202;-88
2021/05/08 05:11:29;;;;;;;15.63;14.02;;;6.80;70.10;;;;;;4977425;28;20174;-86
2021/05/08 05:13:54;;;;;;;15.43;13.93;;;7.80;74.70;;;;;;4975658;28;20323;-88
2021/05/08 05:16:21;;;;;;;16.90;15.23;;;9.10;76.20;;;;;;4976179;28;20177;-87
2021/05/08 05:19:39;;;;;;;16.55;14.48;;;6.40;65.40;;;;;;4964433;28;20253;-87
2021/05/08 05:22:42;;;;;;;16.52;14.05;;;7.20;66.80;;;;;;4982541;28;20176;-87
2021/05/08 05:25:23;;;;;;;15.35;13.75;;;9.30;68.50;;;;;;4982928;28;20185;-88
2021/05/08 05:28:48;;;;;;;14.00;12.55;;;8.20;71.60;;;;;;4978835;28;20227;-88
2021/05/08 05:31:35;;;;;;;14.45;12.90;;;7.80;75.70;;;;;;4995023;28;20213;-88
2021/05/08 05:34:32;;;;;;;19.75;12.98;;;8.50;83.40;;;;;;4997246;28;20177;-87
2021/05/08 05:37:17;;;;;;;13.55;12.25;;;11.60;70.30;;;;;;4994258;28;20285;-87
2021/05/08 05:39:50;;;;;;;12.50;11.50;;;9.50;63.50;;;;;;4998749;28;20181;-88
2021/05/08 05:42:22;;;;;;;12.97;11.73;;;10.60;55.40;;;;;;4999147;28;20421;-87
2021/05/08 05:45:15;;;;;;;13.60;12.50;;;11.00;54.90;;;;;;5000494;28;20411;-87
2021/05/08 05:48:24;;;;;;;12.03;11.03;;;15.00;58.70;;;;;;4979004;28;20480;-88
2021/05/08 05:51:17;;;;;;;12.20;11.00;;;11.80;54.30;;;;;;4997874;28;20429;-88
2021/05/08 05:54:30;;;;;;;13.17;12.00;;;12.20;63.50;;;;;;4982389;28;20432;-87
2021/05/08 05:57:01;;;;;;;12.23;11.33;;;12.50;60.80;;;;;;4987688;28;20448;-87
2021/05/08 05:59:26;;;;;;;11.83;10.93;;;12.70;59.90;;;;;;4952028;28;20445;-87
2021/05/08 06:02:05;;;;;;;11.93;11.07;;;12.60;58.80;;;;;;4981536;28;20476;-88
2021/05/08 06:04:44;;;;;;;11.23;10.53;;;12.30;56.40;;;;;;4981150;28;20162;-87
2021/05/08 06:07:11;;;;;;;12.03;11.23;;;12.90;55.50;;;;;;4994964;28;20889;-88
2021/05/08 06:09:36;;;;;;;11.80;10.93;;;13.30;55.40;;;;;;4996298;28;20463;-87
2021/05/08 06:12:25;;;;;;;12.00;11.20;;;14.50;47.70;;;;;;4997662;28;20417;-89
2021/05/08 06:15:42;;;;;;;10.70;10.00;;;14.00;45.20;;;;;;4997180;28;20174;-87
2021/05/08 06:18:11;;;;;;;8.57;8.13;;;14.60;44.20;;;;;;4996009;28;20406;-88
2021/05/08 06:20:38;;;;;;;8.93;8.37;;;15.40;40.80;;;;;;4982588;28;20413;-82
2021/05/08 06:23:03;;;;;;;8.80;8.20;;;14.30;35.10;;;;;;4976375;28;20928;-81
2021/05/08 06:25:29;;;;;;;8.40;7.73;;;15.70;36.60;;;;;;4976394;28;20178;-82
2021/05/08 06:27:55;;;;;;;8.37;7.80;;;16.00;35.00;;;;;;4976484;28;20170;-82
2021/05/08 06:30:21;;;;;;;8.40;7.77;;;16.00;34.50;;;;;;4975987;28;20200;-82
2021/05/08 06:32:46;;;;;;;8.50;7.90;;;16.30;34.00;;;;;;4976117;28;20636;-83
2021/05/08 06:35:12;;;;;;;8.83;7.93;;;15.80;34.20;;;;;;4965001;28;20422;-81
2021/05/08 06:37:38;;;;;;;8.83;8.23;;;15.90;33.60;;;;;;4964484;28;20195;-82
2021/05/08 06:40:05;;;;;;;7.97;7.37;;;16.00;33.20;;;;;;4963795;28;20258;-82
2021/05/08 06:42:31;;;;;;;7.33;6.83;;;15.90;33.80;;;;;;4956552;29;20921;-82
2021/05/08 06:44:57;;;;;;;6.63;6.03;;;16.00;32.70;;;;;;4956378;29;20461;-82
2021/05/08 06:47:22;;;;;;;7.07;6.57;;;16.40;32.30;;;;;;4956163;29;20426;-80
2021/05/08 06:49:48;;;;;;;6.87;6.57;;;16.60;31.80;;;;;;4955094;29;20210;-80
2021/05/08 06:52:13;;;;;;;7.00;6.50;;;16.40;31.90;;;;;;4956577;29;20178;-82
2021/05/08 06:54:39;;;;;;;6.57;6.17;;;16.30;31.00;;;;;;4961793;29;20166;-85
2021/05/08 06:57:10;;;;;;;5.83;5.30;;;16.10;31.50;;;;;;4977287;28;20155;-87
2021/05/08 06:59:42;;;;;;;6.20;5.70;;;15.70;32.30;;;;;;4290705;28;10000709;-87
2021/05/08 07:02:08;;;;;;;5.70;5.40;;;15.60;32.40;;;;;;4976449;28;20186;-87
2021/05/08 07:04:33;;;;;;;6.53;6.10;;;15.30;32.20;;;;;;4975273;29;20454;-87
2021/05/08 07:06:59;;;;;;;6.07;5.70;;;15.00;32.30;;;;;;4971244;29;20182;-87
2021/05/08 07:09:25;;;;;;;5.13;4.93;;;15.00;32.90;;;;;;4952085;29;20708;-88
2021/05/08 07:11:50;;;;;;;4.67;4.40;;;14.80;32.50;;;;;;4960578;29;20693;-86
2021/05/08 07:14:16;;;;;;;5.47;5.17;;;14.60;32.60;;;;;;4928984;29;20187;-87
2021/05/08 07:16:41;;;;;;;5.00;4.70;;;14.50;32.90;;;;;;4944539;29;20544;-88
2021/05/08 07:19:07;;;;;;;4.77;4.47;;;14.30;33.50;;;;;;4962859;29;20178;-88
2021/05/08 07:21:32;;;;;;;7.07;4.47;;;14.10;33.80;;;;;;4967813;29;20804;-89
2021/05/08 07:23:58;;;;;;;5.67;5.40;;;13.90;33.80;;;;;;4973348;28;20198;-87
2021/05/08 07:26:24;;;;;;;5.07;4.77;;;14.80;35.20;;;;;;4948664;29;20255;-88
2021/05/08 07:28:49;;;;;;;5.50;5.17;;;15.30;36.00;;;;;;4940707;29;20317;-88
2021/05/08 07:31:15;;;;;;;7.40;4.47;;;12.90;34.00;;;;;;4939655;29;20182;-88
2021/05/08 07:33:40;;;;;;;4.57;4.23;;;13.60;35.30;;;;;;4953527;29;20174;-87
2021/05/08 07:36:06;;;;;;;4.20;4.00;;;12.20;33.60;;;;;;4955058;29;20182;-87
2021/05/08 07:38:34;;;;;;;3.80;3.57;;;12.80;34.10;;;;;;4965882;28;20188;-87
2021/05/08 07:40:59;;;;;;;4.40;4.10;;;13.80;34.30;;;;;;4941179;29;20189;-87
2021/05/08 07:43:25;;;;;;;3.90;3.60;;;13.70;34.40;;;;;;4958285;28;20438;-87
2021/05/08 07:45:50;;;;;;;3.67;3.57;;;13.50;34.60;;;;;;4964677;28;20190;-86
2021/05/08 07:48:16;;;;;;;4.40;4.10;;;13.60;34.70;;;;;;4975729;28;20584;-86
2021/05/08 07:50:43;;;;;;;5.50;4.07;;;13.40;34.40;;;;;;4975942;28;20174;-87
2021/05/08 07:53:08;;;;;;;4.80;4.50;;;13.60;34.80;;;;;;4975706;28;20170;-86
2021/05/08 07:55:34;;;;;;;3.70;3.60;;;13.90;35.10;;;;;;4975404;28;20433;-87
2021/05/08 07:58:03;;;;;;;3.50;3.40;;;13.50;35.10;;;;;;4958392;28;20189;-88
2021/05/08 08:00:29;;;;;;;5.37;4.90;;;13.70;34.40;;;;;;4958213;28;20417;-88
2021/05/08 08:02:54;;;;;;;4.30;4.00;;;14.00;33.90;;;;;;4957989;28;20457;-88
2021/05/08 08:05:20;;;;;;;3.60;3.37;;;14.20;34.10;;;;;;4975056;28;20561;-87
2021/05/08 08:07:45;;;;;;;5.70;4.50;;;14.30;33.60;;;;;;4956103;28;20190;-86
2021/05/08 08:10:11;;;;;;;3.93;3.80;;;14.50;33.90;;;;;;4958825;28;20217;-86
2021/05/08 08:12:41;;;;;;;4.00;3.73;;;14.80;33.00;;;;;;4960746;28;20190;-84
2021/05/08 08:15:10;;;;;;;3.77;3.57;;;14.90;32.80;;;;;;4975285;28;20201;-84
2021/05/08 08:17:36;;;;;;;4.97;4.67;;;15.00;32.60;;;;;;4977307;28;20484;-84
2021/05/08 08:20:12;;;;;;;5.17;4.37;;;15.50;33.00;;;;;;4975179;28;20409;-83
2021/05/08 08:22:39;;;;;;;4.60;4.30;;;15.00;32.90;;;;;;4974701;28;20204;-82
2021/05/08 08:25:06;;;;;;;4.10;3.87;;;14.20;32.30;;;;;;4979164;28;20485;-88
2021/05/08 08:27:32;;;;;;;4.20;3.90;;;15.20;33.00;;;;;;4962304;28;20449;-89
2021/05/08 08:29:57;;;;;;;4.47;4.17;;;15.20;32.80;;;;;;4976744;28;20469;-87
2021/05/08 08:32:24;;;;;;;3.67;3.57;;;16.40;33.50;;;;;;4976232;28;20702;-86
2021/05/08 08:34:50;;;;;;;3.50;3.40;;;15.00;33.50;;;;;;4958870;28;20178;-87
2021/05/08 08:37:15;;;;;;;3.23;3.13;;;15.70;33.80;;;;;;4958544;28;20424;-86
2021/05/08 08:39:41;;;;;;;3.80;3.70;;;14.40;33.80;;;;;;4975740;28;20169;-88
2021/05/08 08:42:09;;;;;;;4.03;3.80;;;14.80;33.30;;;;;;4629618;28;10000216;-88
2021/05/08 08:44:39;;;;;;;4.90;4.60;;;15.10;33.50;;;;;;4956355;28;20236;-87
2021/05/08 08:47:27;;;;;;;4.30;4.10;;;14.60;34.00;;;;;;4979080;28;20417;-88
2021/05/08 08:49:59;;;;;;;4.77;4.47;;;14.70;33.60;;;;;;4958094;29;20484;-87
2021/05/08 08:52:26;;;;;;;4.50;4.20;;;14.50;34.10;;;;;;4942895;29;20402;-88
2021/05/08 08:54:53;;;;;;;4.50;4.30;;;14.90;35.30;;;;;;4941145;29;20870;-87
2021/05/08 08:57:24;;;;;;;4.33;4.13;;;16.30;35.30;;;;;;4958375;29;20410;-87
2021/05/08 08:59:51;;;;;;;4.03;3.83;;;15.20;34.10;;;;;;4959133;29;20426;-86
2021/05/08 09:02:17;;;;;;;5.37;5.10;;;16.10;34.70;;;;;;4960771;29;20449;-86
2021/05/08 09:04:43;;;;;;;4.37;4.07;;;16.70;35.20;;;;;;4943462;29;20442;-87
2021/05/08 09:07:14;;;;;;;5.80;4.30;;;14.90;34.60;;;;;;4959969;29;20204;-88
2021/05/08 09:09:41;;;;;;;3.83;3.60;;;17.20;36.20;;;;;;4962068;29;20266;-84
2021/05/08 09:12:12;;;;;;;3.97;3.70;;;15.00;34.20;;;;;;4940986;29;20414;-86
2021/05/08 09:14:39;;;;;;;3.83;3.63;;;16.20;34.50;;;;;;4958647;29;20909;-84
2021/05/08 09:17:11;;;;;;;3.93;3.73;;;14.90;34.10;;;;;;4958843;29;20418;-88
2021/05/08 09:19:46;;;;;;;4.50;4.30;;;15.10;34.30;;;;;;4941349;29;20933;-88
2021/05/08 09:22:37;;;;;;;3.67;3.47;;;15.30;33.70;;;;;;4942123;29;20410;-87
2021/05/08 09:25:16;;;;;;;3.80;3.60;;;15.50;33.60;;;;;;4945005;29;20422;-85
2021/05/08 09:27:52;;;;;;;4.10;4.00;;;15.70;33.20;;;;;;4958352;29;20424;-87
2021/05/08 09:30:30;;;;;;;3.93;3.73;;;15.60;32.60;;;;;;4958643;29;20534;-87
2021/05/08 09:32:56;;;;;;;3.50;3.40;;;15.70;33.20;;;;;;4960750;29;20414;-87
2021/05/08 09:35:28;;;;;;;3.17;3.07;;;15.60;33.20;;;;;;4942787;29;20430;-86
2021/05/08 09:38:10;;;;;;;4.00;3.80;;;15.80;33.10;;;;;;4958447;29;20199;-83
2021/05/08 09:40:38;;;;;;;3.77;3.47;;;16.20;32.70;;;;;;4960541;29;20425;-86
2021/05/08 09:43:22;;;;;;;3.30;3.10;;;17.00;32.20;;;;;;4962156;29;20535;-90
2021/05/08 09:45:52;;;;;;;4.17;4.00;;;17.60;31.20;;;;;;4971585;29;20424;-85
2021/05/08 09:48:31;;;;;;;3.97;3.67;;;18.10;32.30;;;;;;4933932;29;20600;-90
2021/05/08 09:51:24;;;;;;;4.00;3.90;;;20.40;31.90;;;;;;4966271;29;20426;-88
2021/05/08 09:54:20;;;;;;;4.20;3.90;;;18.70;28.90;;;;;;4961068;29;20430;-87
2021/05/08 09:56:48;;;;;;;3.50;3.40;;;18.40;28.70;;;;;;4961485;29;20606;-90
2021/05/08 09:59:34;;;;;;;3.30;3.20;;;18.00;28.80;;;;;;4961661;29;20430;-86
2021/05/08 10:02:03;;;;;;;3.30;3.20;;;17.80;29.40;;;;;;4958403;29;20429;-82
2021/05/08 10:04:36;;;;;;;3.10;3.00;;;17.60;29.10;;;;;;4943572;29;20433;-84
2021/05/08 10:07:21;;;;;;;3.00;3.00;;;17.90;29.60;;;;;;4958209;29;20430;-85
2021/05/08 10:09:52;;;;;;;4.00;3.27;;;17.90;29.60;;;;;;4957692;29;20465;-86
2021/05/08 10:12:19;;;;;;;4.07;3.70;;;18.10;29.10;;;;;;4957185;29;20415;-84
2021/05/08 10:14:47;;;;;;;3.73;3.60;;;18.40;29.10;;;;;;4958674;29;20458;-87
2021/05/08 10:17:14;;;;;;;3.83;3.63;;;18.80;28.70;;;;;;4956585;29;20410;-81
2021/05/08 10:19:43;;;;;;;4.40;4.10;;;19.50;28.00;;;;;;4956655;29;20925;-83
2021/05/08 10:22:11;;;;;;;3.80;3.50;;;19.80;28.20;;;;;;4956763;29;20924;-83
2021/05/08 10:24:39;;;;;;;5.40;4.50;;;19.80;27.50;;;;;;4957932;29;20426;-82
2021/05/08 10:27:05;;;;;;;4.23;4.03;;;19.40;27.30;;;;;;4958215;29;20505;-81
2021/05/08 10:29:35;;;;;;;4.30;4.00;;;19.20;27.50;;;;;;4957376;29;20501;-83
2021/05/08 10:32:15;;;;;;;4.30;3.96;;;18.50;28.10;;;;;;4572561;29;10002911;-83
2021/05/08 10:34:53;;;;;;;4.13;3.93;;;18.50;28.50;;;;;;4953859;29;20199;-82
2021/05/08 10:37:19;;;;;;;4.47;4.27;;;18.60;28.20;;;;;;4936780;29;20438;-83
2021/05/08 10:40:15;;;;;;;4.33;4.13;;;18.50;28.80;;;;;;4949441;29;20469;-82
2021/05/08 10:42:43;;;;;;;4.10;3.80;;;18.60;28.60;;;;;;4936311;29;20427;-83
2021/05/08 10:45:18;;;;;;;3.90;3.77;;;18.40;28.60;;;;;;4936745;29;20429;-83
2021/05/08 10:47:55;;;;;;;3.93;3.63;;;18.60;28.40;;;;;;4940942;29;20972;-83
2021/05/08 10:50:22;;;;;;;4.40;4.10;;;18.50;28.30;;;;;;4953706;29;20480;-83
2021/05/08 10:53:07;;;;;;;4.20;3.50;;;19.20;29.10;;;;;;4953636;29;20754;-82
2021/05/08 10:56:01;;;;;;;3.43;3.27;;;18.80;28.40;;;;;;4952415;29;20408;-81
2021/05/08 10:58:28;;;;;;;3.60;3.43;;;19.00;28.20;;;;;;4955361;28;20418;-81
2021/05/08 11:00:58;;;;;;;3.60;3.30;;;18.90;28.40;;;;;;4951711;28;20410;-82
2021/05/08 11:03:24;;;;;;;4.60;4.33;;;18.90;28.50;;;;;;4954197;29;20780;-81
2021/05/08 11:05:50;;;;;;;5.33;3.33;;;18.80;28.30;;;;;;4955422;29;20433;-82
2021/05/08 11:08:25;;;;;;;3.23;3.13;;;18.40;28.60;;;;;;4956187;29;20533;-82
2021/05/08 11:10:58;;;;;;;3.93;3.73;;;17.80;28.90;;;;;;4955453;29;20430;-80
2021/05/08 11:13:48;;;;;;;2.93;2.83;;;17.50;29.50;;;;;;4960756;29;20469;-81
2021/05/08 11:16:18;;;;;;;3.83;3.60;;;17.30;29.70;;;;;;4959541;29;20438;-81
2021/05/08 11:18:46;;;;;;;3.80;3.50;;;17.20;29.60;;;;;;4956090;29;20418;-83
2021/05/08 11:21:11;;;;;;;5.13;3.63;;;17.90;30.00;;;;;;4955588;29;20414;-82
2021/05/08 11:23:49;;;;;;;3.90;3.60;;;17.50;29.60;;;;;;4955395;29;20410;-82
2021/05/08 11:26:27;;;;;;;4.13;4.03;;;17.70;29.70;;;;;;4956254;29;20209;-81
2021/05/08 11:29:18;;;;;;;3.17;3.07;;;18.40;29.60;;;;;;4955393;29;20462;-82
2021/05/08 11:31:51;;;;;;;3.60;3.50;;;18.00;29.30;;;;;;4955475;29;20418;-82
2021/05/08 11:34:21;;;;;;;4.90;4.60;;;18.50;29.20;;;;;;4955635;29;20437;-81
2021/05/08 11:36:54;;;;;;;2.73;2.60;;;18.70;28.90;;;;;;4962573;28;20456;-83
2021/05/08 11:39:29;;;;;;;3.30;3.20;;;18.80;28.70;;;;;;4974650;28;20906;-83
2021/05/08 11:41:57;;;;;;;2.90;2.80;;;19.10;28.90;;;;;;4974295;28;20409;-83
2021/05/08 11:44:27;;;;;;;2.57;2.47;;;19.00;28.70;;;;;;4969120;28;20842;-88
2021/05/08 11:46:58;;;;;;;3.30;3.20;;;19.10;28.70;;;;;;4969322;28;20418;-90
2021/05/08 11:49:36;;;;;;;2.47;2.47;;;18.50;28.70;;;;;;4969370;28;21030;-90
2021/05/08 11:52:05;;;;;;;3.10;2.90;;;18.10;29.20;;;;;;4981302;28;20846;-87
2021/05/08 11:54:42;;;;;;;3.97;3.40;;;17.90;29.20;;;;;;4985399;28;20484;-87
2021/05/08 11:57:25;;;;;;;4.06;3.37;;;18.30;30.70;;;;;;4948006;28;10000843;-88
2021/05/08 11:59:51;;;;;;;3.30;3.20;;;17.50;29.80;;;;;;4961685;29;20383;-85
2021/05/08 12:02:24;;;;;;;3.57;3.47;;;15.80;29.30;;;;;;4961506;29;20422;-89
2021/05/08 12:04:59;;;;;;;3.27;3.17;;;17.50;30.20;;;;;;4970767;29;20241;-89
2021/05/08 12:07:32;;;;;;;3.40;3.30;;;18.40;30.20;;;;;;4951110;29;20411;-89
2021/05/08 12:10:19;;;;;;;40.63;36.33;;;17.40;30.00;;;;;;4968111;28;20477;-90
2021/05/08 12:12:49;;;;;;;2.27;2.27;;;17.10;30.50;;;;;;4953489;29;20406;-89
2021/05/08 12:15:30;;;;;;;2.47;2.43;;;17.00;30.70;;;;;;4968477;29;20422;-90
2021/05/08 12:17:59;;;;;;;3.17;2.97;;;16.90;31.40;;;;;;4933848;29;20472;-89
2021/05/08 12:20:29;;;;;;;2.93;2.73;;;17.10;34.50;;;;;;4949739;29;20439;-89
2021/05/08 12:23:02;;;;;;;2.40;2.30;;;15.80;32.90;;;;;;4950129;29;20430;-88
2021/05/08 12:25:28;;;;;;;5.03;4.83;;;16.40;34.10;;;;;;4952333;29;20566;-89
2021/05/08 12:28:29;;;;;;;2.93;2.93;;;16.00;35.80;;;;;;4956805;29;20429;-86
2021/05/08 12:30:55;;;;;;;2.53;2.50;;;15.70;40.90;;;;;;4905791;29;20428;-87
2021/05/08 12:33:22;;;;;;;2.90;2.80;;;15.20;38.40;;;;;;4948117;28;20425;-88
2021/05/08 12:35:54;;;;;;;4.87;2.80;;;15.00;40.70;;;;;;4980959;28;20233;-89
2021/05/08 12:38:27;;;;;;;2.70;2.70;;;14.80;40.80;;;;;;4968602;28;20414;-89
2021/05/08 12:40:53;;;;;;;3.10;3.00;;;14.80;44.60;;;;;;4983130;28;20414;-85
2021/05/08 12:43:34;;;;;;;2.60;2.50;;;14.60;44.20;;;;;;4965213;28;20580;-87
2021/05/08 12:46:02;;;;;;;2.50;2.50;;;14.40;45.50;;;;;;4975262;28;20901;-86
2021/05/08 12:48:29;;;;;;;2.37;2.27;;;14.20;47.00;;;;;;4974285;28;20512;-84
2021/05/08 12:50:55;;;;;;;3.07;2.77;;;14.10;48.10;;;;;;4973902;28;20413;-86
2021/05/08 12:53:21;;;;;;;3.00;2.90;;;13.90;47.30;;;;;;4974009;28;20508;-85
2021/05/08 12:56:03;;;;;;;2.40;2.30;;;13.80;49.10;;;;;;4973545;28;20173;-86
2021/05/08 12:58:37;;;;;;;3.57;3.30;;;13.70;50.00;;;;;;4956331;28;20196;-85
2021/05/08 13:01:03;;;;;;;3.13;2.77;;;13.70;50.30;;;;;;4974562;28;20441;-87
2021/05/08 13:06:03;;;;;;;2.73;2.57;;;13.80;50.40;;;;;;4973844;28;20935;-85